Accueil
METAR-TAF:

METAR-TAF

Aéroports :

Boscombe Down, Angleterre

latitude: 51-10N, longitude: 001-45W, altitude: 124 m

Observation

Le bulletin a été fait il y a 25 minutes, à 11:50 UTC
Vent 6 kt de sud/sud-ouest
Température 24°C
Humidité 44%
Pression 1018 hPa
Visibilité 10 km ou plus
Quelques nuages à une hauteur de 4200 ft
Nuages fragmentés à une hauteur de 6000 ft

METAR: EGDM 181150Z 21006KT 9999 FEW042 BKN060 24/11 Q1018 BLU NOSIG

Heure: 13:15 (12:15 UTC)

Prévision

Le bulletin a été fait il y a 1 heure et 45 minutes, à 10:30 UTC
Prévision valable du 18 à 12 UTC au 18 à 18 UTC
Vent 6 kt de sud-ouest
Visibilité 10 km ou plus
Quelques nuages à une hauteur de 4500 ft

TAF: EGDM 181030Z 1812/1818 22006KT 9999 FEW045

Observations et prévisions météorologiques de plus de 4000 aéroports (messages METAR et TAF).

Les stations disponibles sont représentées par des disques jaunes et rouges sur la carte.

Passer la souris dessus pour voir le nom de la station.

Cliquer dessus pour voir les observations et prévisions météorologiques.

Pour changer de carte: cliquez sur les boutons verts avec une croix noire pour zoomer, sur le bouton vert avec un tiret pour effectuer un zoom arrière, ou sur les flèches vertes pour les cartes adjacentes.


METAR-TAF: